sensor_id;sensor_type;location;lat;lon;timestamp;temperature;humidity
44607;DHT22;30315;46.072;14.474;2022-08-19T00:01:36;24.60;75.50
44607;DHT22;30315;46.072;14.474;2022-08-19T00:04:07;24.60;75.80
44607;DHT22;30315;46.072;14.474;2022-08-19T00:06:36;24.60;76.00
44607;DHT22;30315;46.072;14.474;2022-08-19T00:09:06;24.60;75.80
44607;DHT22;30315;46.072;14.474;2022-08-19T00:11:34;24.70;75.90
44607;DHT22;30315;46.072;14.474;2022-08-19T00:14:03;24.60;75.60
44607;DHT22;30315;46.072;14.474;2022-08-19T00:16:31;24.60;75.50
44607;DHT22;30315;46.072;14.474;2022-08-19T00:18:58;24.70;75.60
44607;DHT22;30315;46.072;14.474;2022-08-19T00:21:26;24.60;75.80
44607;DHT22;30315;46.072;14.474;2022-08-19T00:23:57;24.60;75.90
44607;DHT22;30315;46.072;14.474;2022-08-19T00:26:26;24.60;76.00
44607;DHT22;30315;46.072;14.474;2022-08-19T00:28:53;24.60;75.80
44607;DHT22;30315;46.072;14.474;2022-08-19T00:31:20;24.60;75.60
44607;DHT22;30315;46.072;14.474;2022-08-19T00:33:48;24.70;75.60
44607;DHT22;30315;46.072;14.474;2022-08-19T00:36:17;24.70;75.60
44607;DHT22;30315;46.072;14.474;2022-08-19T00:38:44;24.70;75.80
44607;DHT22;30315;46.072;14.474;2022-08-19T00:41:17;24.60;75.90
44607;DHT22;30315;46.072;14.474;2022-08-19T00:44:07;24.60;75.80
44607;DHT22;30315;46.072;14.474;2022-08-19T00:46:37;24.60;75.60
44607;DHT22;30315;46.072;14.474;2022-08-19T00:49:26;24.60;76.00
44607;DHT22;30315;46.072;14.474;2022-08-19T00:52:03;24.60;76.10
44607;DHT22;30315;46.072;14.474;2022-08-19T00:54:31;24.60;76.00
44607;DHT22;30315;46.072;14.474;2022-08-19T00:56:59;24.60;75.90
44607;DHT22;30315;46.072;14.474;2022-08-19T00:59:28;24.60;75.80
44607;DHT22;30315;46.072;14.474;2022-08-19T01:02:16;24.60;75.50
44607;DHT22;30315;46.072;14.474;2022-08-19T01:04:43;24.60;75.60
44607;DHT22;30315;46.072;14.474;2022-08-19T01:07:10;24.60;75.80
44607;DHT22;30315;46.072;14.474;2022-08-19T01:09:43;24.70;75.80
44607;DHT22;30315;46.072;14.474;2022-08-19T01:12:10;24.70;75.60
44607;DHT22;30315;46.072;14.474;2022-08-19T01:14:39;24.70;74.90
44607;DHT22;30315;46.072;14.474;2022-08-19T01:17:10;24.80;74.70
44607;DHT22;30315;46.072;14.474;2022-08-19T01:19:41;24.80;74.40
44607;DHT22;30315;46.072;14.474;2022-08-19T01:22:33;24.80;74.70
44607;DHT22;30315;46.072;14.474;2022-08-19T01:25:01;24.90;75.20
44607;DHT22;30315;46.072;14.474;2022-08-19T01:27:39;24.70;74.90
44607;DHT22;30315;46.072;14.474;2022-08-19T01:30:12;24.70;75.00
44607;DHT22;30315;46.072;14.474;2022-08-19T01:32:40;24.70;75.10
44607;DHT22;30315;46.072;14.474;2022-08-19T01:35:09;24.70;74.80
44607;DHT22;30315;46.072;14.474;2022-08-19T01:37:44;24.80;74.60
44607;DHT22;30315;46.072;14.474;2022-08-19T01:40:12;24.80;74.70
44607;DHT22;30315;46.072;14.474;2022-08-19T01:42:39;24.80;74.50
44607;DHT22;30315;46.072;14.474;2022-08-19T01:45:07;24.80;74.60
44607;DHT22;30315;46.072;14.474;2022-08-19T01:47:36;24.70;74.80
44607;DHT22;30315;46.072;14.474;2022-08-19T01:50:06;24.70;74.90
44607;DHT22;30315;46.072;14.474;2022-08-19T01:52:38;24.60;75.10
44607;DHT22;30315;46.072;14.474;2022-08-19T01:55:08;24.70;75.70
44607;DHT22;30315;46.072;14.474;2022-08-19T01:57:37;24.70;76.10
44607;DHT22;30315;46.072;14.474;2022-08-19T02:00:09;24.60;76.40
44607;DHT22;30315;46.072;14.474;2022-08-19T02:02:37;24.70;77.00
44607;DHT22;30315;46.072;14.474;2022-08-19T02:05:05;24.60;76.60
44607;DHT22;30315;46.072;14.474;2022-08-19T02:07:38;24.60;76.70
44607;DHT22;30315;46.072;14.474;2022-08-19T02:10:10;24.60;77.20
44607;DHT22;30315;46.072;14.474;2022-08-19T02:15:45;24.50;77.50
44607;DHT22;30315;46.072;14.474;2022-08-19T02:18:12;24.30;77.30
44607;DHT22;30315;46.072;14.474;2022-08-19T02:20:41;24.00;77.50
44607;DHT22;30315;46.072;14.474;2022-08-19T02:23:11;23.60;76.90
44607;DHT22;30315;46.072;14.474;2022-08-19T02:25:42;23.70;78.80
44607;DHT22;30315;46.072;14.474;2022-08-19T02:28:11;23.30;79.60
44607;DHT22;30315;46.072;14.474;2022-08-19T02:30:44;23.10;80.40
44607;DHT22;30315;46.072;14.474;2022-08-19T02:33:11;23.10;80.70
44607;DHT22;30315;46.072;14.474;2022-08-19T02:35:42;23.00;81.00
44607;DHT22;30315;46.072;14.474;2022-08-19T02:38:09;23.00;80.00
44607;DHT22;30315;46.072;14.474;2022-08-19T02:40:58;22.90;78.40
44607;DHT22;30315;46.072;14.474;2022-08-19T02:43:26;22.80;80.00
44607;DHT22;30315;46.072;14.474;2022-08-19T02:45:55;22.80;80.80
44607;DHT22;30315;46.072;14.474;2022-08-19T02:48:23;22.80;80.60
44607;DHT22;30315;46.072;14.474;2022-08-19T02:50:52;22.90;80.20
44607;DHT22;30315;46.072;14.474;2022-08-19T02:53:26;22.90;82.50
44607;DHT22;30315;46.072;14.474;2022-08-19T02:55:54;23.00;83.20
44607;DHT22;30315;46.072;14.474;2022-08-19T02:58:22;22.90;84.10
44607;DHT22;30315;46.072;14.474;2022-08-19T03:00:52;23.00;83.80
44607;DHT22;30315;46.072;14.474;2022-08-19T03:03:20;22.90;83.40
44607;DHT22;30315;46.072;14.474;2022-08-19T03:05:47;22.90;85.40
44607;DHT22;30315;46.072;14.474;2022-08-19T03:08:23;22.90;85.40
44607;DHT22;30315;46.072;14.474;2022-08-19T03:10:51;22.80;84.90
44607;DHT22;30315;46.072;14.474;2022-08-19T03:13:19;22.80;85.90
44607;DHT22;30315;46.072;14.474;2022-08-19T03:15:47;22.80;85.00
44607;DHT22;30315;46.072;14.474;2022-08-19T03:18:15;22.70;84.10
44607;DHT22;30315;46.072;14.474;2022-08-19T03:20:45;22.60;85.40
44607;DHT22;30315;46.072;14.474;2022-08-19T03:23:13;22.70;85.80
44607;DHT22;30315;46.072;14.474;2022-08-19T03:25:42;22.70;85.70
44607;DHT22;30315;46.072;14.474;2022-08-19T03:28:11;22.70;87.10
44607;DHT22;30315;46.072;14.474;2022-08-19T03:30:40;22.70;86.80
44607;DHT22;30315;46.072;14.474;2022-08-19T03:33:10;22.70;86.00
44607;DHT22;30315;46.072;14.474;2022-08-19T03:35:43;22.70;86.80
44607;DHT22;30315;46.072;14.474;2022-08-19T03:38:11;22.70;87.20
44607;DHT22;30315;46.072;14.474;2022-08-19T03:40:38;22.70;87.60
44607;DHT22;30315;46.072;14.474;2022-08-19T03:43:05;22.70;88.30
44607;DHT22;30315;46.072;14.474;2022-08-19T03:45:32;22.70;88.50
44607;DHT22;30315;46.072;14.474;2022-08-19T03:47:59;22.80;88.60
44607;DHT22;30315;46.072;14.474;2022-08-19T03:50:27;22.70;88.80
44607;DHT22;30315;46.072;14.474;2022-08-19T03:52:54;22.70;88.10
44607;DHT22;30315;46.072;14.474;2022-08-19T03:55:20;22.70;88.60
44607;DHT22;30315;46.072;14.474;2022-08-19T03:57:47;22.80;89.20
44607;DHT22;30315;46.072;14.474;2022-08-19T04:00:15;22.70;89.60
44607;DHT22;30315;46.072;14.474;2022-08-19T04:02:43;22.70;89.20
44607;DHT22;30315;46.072;14.474;2022-08-19T04:05:28;22.70;89.40
44607;DHT22;30315;46.072;14.474;2022-08-19T04:07:55;22.80;88.80
44607;DHT22;30315;46.072;14.474;2022-08-19T04:10:25;22.80;88.30
44607;DHT22;30315;46.072;14.474;2022-08-19T04:12:52;22.70;88.40
44607;DHT22;30315;46.072;14.474;2022-08-19T04:15:19;22.70;87.60
44607;DHT22;30315;46.072;14.474;2022-08-19T04:17:47;22.70;87.70
44607;DHT22;30315;46.072;14.474;2022-08-19T04:20:14;22.70;88.30
44607;DHT22;30315;46.072;14.474;2022-08-19T04:22:41;22.70;88.40
44607;DHT22;30315;46.072;14.474;2022-08-19T04:25:08;22.70;88.00
44607;DHT22;30315;46.072;14.474;2022-08-19T04:27:35;22.60;87.70
44607;DHT22;30315;46.072;14.474;2022-08-19T04:30:07;22.70;89.10
44607;DHT22;30315;46.072;14.474;2022-08-19T04:32:34;22.70;89.30
44607;DHT22;30315;46.072;14.474;2022-08-19T04:35:02;22.70;89.10
44607;DHT22;30315;46.072;14.474;2022-08-19T04:37:44;22.70;89.10
44607;DHT22;30315;46.072;14.474;2022-08-19T04:40:11;22.70;89.00
44607;DHT22;30315;46.072;14.474;2022-08-19T04:42:56;22.70;88.10
44607;DHT22;30315;46.072;14.474;2022-08-19T04:45:23;22.70;88.20
44607;DHT22;30315;46.072;14.474;2022-08-19T04:47:55;22.70;88.70
44607;DHT22;30315;46.072;14.474;2022-08-19T04:50:25;22.70;88.80
44607;DHT22;30315;46.072;14.474;2022-08-19T04:52:53;22.60;88.20
44607;DHT22;30315;46.072;14.474;2022-08-19T04:55:22;22.60;87.80
44607;DHT22;30315;46.072;14.474;2022-08-19T04:57:52;22.60;88.30
44607;DHT22;30315;46.072;14.474;2022-08-19T05:00:19;22.60;89.10
44607;DHT22;30315;46.072;14.474;2022-08-19T05:02:46;22.60;88.30
44607;DHT22;30315;46.072;14.474;2022-08-19T05:05:13;22.70;87.60
44607;DHT22;30315;46.072;14.474;2022-08-19T05:07:40;22.60;86.60
44607;DHT22;30315;46.072;14.474;2022-08-19T05:10:07;22.50;86.00
44607;DHT22;30315;46.072;14.474;2022-08-19T05:12:35;22.40;86.70
44607;DHT22;30315;46.072;14.474;2022-08-19T05:15:05;22.30;88.30
44607;DHT22;30315;46.072;14.474;2022-08-19T05:17:32;22.30;87.70
44607;DHT22;30315;46.072;14.474;2022-08-19T05:20:08;22.30;87.80
44607;DHT22;30315;46.072;14.474;2022-08-19T05:22:54;22.40;87.90
44607;DHT22;30315;46.072;14.474;2022-08-19T05:25:22;22.30;87.30
44607;DHT22;30315;46.072;14.474;2022-08-19T05:27:51;22.40;87.70
44607;DHT22;30315;46.072;14.474;2022-08-19T05:30:18;22.30;87.40
44607;DHT22;30315;46.072;14.474;2022-08-19T05:33:05;22.40;87.70
44607;DHT22;30315;46.072;14.474;2022-08-19T05:35:32;22.40;88.10
44607;DHT22;30315;46.072;14.474;2022-08-19T05:38:00;22.40;88.20
44607;DHT22;30315;46.072;14.474;2022-08-19T05:40:27;22.40;88.30
44607;DHT22;30315;46.072;14.474;2022-08-19T05:42:55;22.40;88.70
44607;DHT22;30315;46.072;14.474;2022-08-19T05:45:22;22.40;89.10
44607;DHT22;30315;46.072;14.474;2022-08-19T05:47:49;22.50;89.70
44607;DHT22;30315;46.072;14.474;2022-08-19T05:50:16;22.50;90.00
44607;DHT22;30315;46.072;14.474;2022-08-19T05:52:44;22.60;90.20
44607;DHT22;30315;46.072;14.474;2022-08-19T05:55:16;22.70;90.30
44607;DHT22;30315;46.072;14.474;2022-08-19T05:57:43;22.70;90.10
44607;DHT22;30315;46.072;14.474;2022-08-19T06:00:10;22.70;90.20
44607;DHT22;30315;46.072;14.474;2022-08-19T06:02:38;22.80;90.40
44607;DHT22;30315;46.072;14.474;2022-08-19T06:05:07;22.80;90.50
44607;DHT22;30315;46.072;14.474;2022-08-19T06:07:36;22.90;90.40
44607;DHT22;30315;46.072;14.474;2022-08-19T06:10:05;22.90;90.80
44607;DHT22;30315;46.072;14.474;2022-08-19T06:12:32;23.00;90.40
44607;DHT22;30315;46.072;14.474;2022-08-19T06:15:11;23.00;90.40
44607;DHT22;30315;46.072;14.474;2022-08-19T06:17:38;23.00;90.30
44607;DHT22;30315;46.072;14.474;2022-08-19T06:20:07;23.10;90.00
44607;DHT22;30315;46.072;14.474;2022-08-19T06:22:44;23.20;89.90
44607;DHT22;30315;46.072;14.474;2022-08-19T06:25:13;23.20;89.70
44607;DHT22;30315;46.072;14.474;2022-08-19T06:27:40;23.20;89.30
44607;DHT22;30315;46.072;14.474;2022-08-19T06:30:28;23.20;89.40
44607;DHT22;30315;46.072;14.474;2022-08-19T06:32:54;23.30;86.30
44607;DHT22;30315;46.072;14.474;2022-08-19T06:35:22;23.20;86.50
44607;DHT22;30315;46.072;14.474;2022-08-19T06:37:49;23.30;86.60
44607;DHT22;30315;46.072;14.474;2022-08-19T06:40:16;23.30;87.30
44607;DHT22;30315;46.072;14.474;2022-08-19T06:42:43;23.40;87.40
44607;DHT22;30315;46.072;14.474;2022-08-19T06:45:24;23.40;86.50
44607;DHT22;30315;46.072;14.474;2022-08-19T06:48:05;23.40;85.90
44607;DHT22;30315;46.072;14.474;2022-08-19T06:50:32;23.40;85.20
44607;DHT22;30315;46.072;14.474;2022-08-19T06:53:02;23.40;85.60
44607;DHT22;30315;46.072;14.474;2022-08-19T06:55:30;23.40;86.30
44607;DHT22;30315;46.072;14.474;2022-08-19T06:58:02;23.50;86.00
44607;DHT22;30315;46.072;14.474;2022-08-19T07:00:30;23.50;84.90
44607;DHT22;30315;46.072;14.474;2022-08-19T07:03:02;23.40;84.90
44607;DHT22;30315;46.072;14.474;2022-08-19T07:05:41;23.50;84.00
44607;DHT22;30315;46.072;14.474;2022-08-19T07:08:12;23.50;85.00
44607;DHT22;30315;46.072;14.474;2022-08-19T07:10:43;23.50;84.90
44607;DHT22;30315;46.072;14.474;2022-08-19T07:13:10;23.50;83.20
44607;DHT22;30315;46.072;14.474;2022-08-19T07:15:38;23.50;83.20
44607;DHT22;30315;46.072;14.474;2022-08-19T07:18:05;23.50;84.50
44607;DHT22;30315;46.072;14.474;2022-08-19T07:20:37;23.50;85.70
44607;DHT22;30315;46.072;14.474;2022-08-19T07:23:08;23.60;86.00
44607;DHT22;30315;46.072;14.474;2022-08-19T07:25:41;23.70;86.10
44607;DHT22;30315;46.072;14.474;2022-08-19T07:28:10;23.70;85.20
44607;DHT22;30315;46.072;14.474;2022-08-19T07:30:51;23.80;85.60
44607;DHT22;30315;46.072;14.474;2022-08-19T07:33:18;23.80;85.50
44607;DHT22;30315;46.072;14.474;2022-08-19T07:35:45;23.80;84.90
44607;DHT22;30315;46.072;14.474;2022-08-19T07:38:12;23.90;84.00
44607;DHT22;30315;46.072;14.474;2022-08-19T07:40:41;23.90;84.70
44607;DHT22;30315;46.072;14.474;2022-08-19T07:43:10;24.00;85.90
44607;DHT22;30315;46.072;14.474;2022-08-19T07:45:43;23.90;85.10
44607;DHT22;30315;46.072;14.474;2022-08-19T07:48:10;24.00;85.00
44607;DHT22;30315;46.072;14.474;2022-08-19T07:50:37;24.10;85.20
44607;DHT22;30315;46.072;14.474;2022-08-19T07:53:05;24.10;85.00
44607;DHT22;30315;46.072;14.474;2022-08-19T07:55:32;24.10;85.10
44607;DHT22;30315;46.072;14.474;2022-08-19T07:58:14;24.20;85.00
44607;DHT22;30315;46.072;14.474;2022-08-19T08:00:42;24.30;84.80
44607;DHT22;30315;46.072;14.474;2022-08-19T08:03:11;24.30;83.60
44607;DHT22;30315;46.072;14.474;2022-08-19T08:05:38;24.30;83.70
44607;DHT22;30315;46.072;14.474;2022-08-19T08:08:23;24.40;83.90
44607;DHT22;30315;46.072;14.474;2022-08-19T08:11:02;24.40;83.40
44607;DHT22;30315;46.072;14.474;2022-08-19T08:13:33;24.50;83.10
44607;DHT22;30315;46.072;14.474;2022-08-19T08:16:04;24.50;82.50
44607;DHT22;30315;46.072;14.474;2022-08-19T08:18:40;24.50;81.80
44607;DHT22;30315;46.072;14.474;2022-08-19T08:21:09;24.60;81.40
44607;DHT22;30315;46.072;14.474;2022-08-19T08:23:36;24.60;81.20
44607;DHT22;30315;46.072;14.474;2022-08-19T08:26:05;24.60;80.50
44607;DHT22;30315;46.072;14.474;2022-08-19T08:28:32;24.60;80.00
44607;DHT22;30315;46.072;14.474;2022-08-19T08:30:59;24.70;80.10
44607;DHT22;30315;46.072;14.474;2022-08-19T08:33:27;24.70;80.60
44607;DHT22;30315;46.072;14.474;2022-08-19T08:36:07;24.80;80.30
44607;DHT22;30315;46.072;14.474;2022-08-19T08:38:35;24.70;78.30
44607;DHT22;30315;46.072;14.474;2022-08-19T08:43:51;24.80;79.90
44607;DHT22;30315;46.072;14.474;2022-08-19T08:46:34;24.80;79.30
44607;DHT22;30315;46.072;14.474;2022-08-19T08:49:17;24.70;78.00
44607;DHT22;30315;46.072;14.474;2022-08-19T08:54:39;24.80;78.70
44607;DHT22;30315;46.072;14.474;2022-08-19T08:57:40;24.80;77.90
44607;DHT22;30315;46.072;14.474;2022-08-19T09:00:15;24.80;78.00
44607;DHT22;30315;46.072;14.474;2022-08-19T09:02:44;24.80;78.20
44607;DHT22;30315;46.072;14.474;2022-08-19T09:05:17;24.90;78.60
44607;DHT22;30315;46.072;14.474;2022-08-19T09:08:02;24.90;78.60
44607;DHT22;30315;46.072;14.474;2022-08-19T09:10:43;25.00;78.10
44607;DHT22;30315;46.072;14.474;2022-08-19T09:16:18;25.10;77.70
44607;DHT22;30315;46.072;14.474;2022-08-19T09:19:04;25.10;77.40
44607;DHT22;30315;46.072;14.474;2022-08-19T09:21:33;25.10;77.20
44607;DHT22;30315;46.072;14.474;2022-08-19T09:24:02;25.30;77.50
44607;DHT22;30315;46.072;14.474;2022-08-19T09:26:32;25.40;77.80
44607;DHT22;30315;46.072;14.474;2022-08-19T09:29:14;25.40;77.30
44607;DHT22;30315;46.072;14.474;2022-08-19T09:31:43;25.50;76.90
44607;DHT22;30315;46.072;14.474;2022-08-19T09:34:10;25.50;76.70
44607;DHT22;30315;46.072;14.474;2022-08-19T09:36:47;25.60;75.70
44607;DHT22;30315;46.072;14.474;2022-08-19T09:39:19;25.60;75.00
44607;DHT22;30315;46.072;14.474;2022-08-19T09:41:46;25.60;74.20
44607;DHT22;30315;46.072;14.474;2022-08-19T09:44:15;25.60;74.50
44607;DHT22;30315;46.072;14.474;2022-08-19T09:46:43;25.70;74.30
44607;DHT22;30315;46.072;14.474;2022-08-19T09:49:10;25.70;74.10
44607;DHT22;30315;46.072;14.474;2022-08-19T09:51:39;25.70;73.80
44607;DHT22;30315;46.072;14.474;2022-08-19T09:54:06;25.70;73.70
44607;DHT22;30315;46.072;14.474;2022-08-19T09:56:37;25.80;74.30
44607;DHT22;30315;46.072;14.474;2022-08-19T09:59:04;25.90;74.00
44607;DHT22;30315;46.072;14.474;2022-08-19T10:01:32;25.90;73.70
44607;DHT22;30315;46.072;14.474;2022-08-19T10:04:00;25.90;73.10
44607;DHT22;30315;46.072;14.474;2022-08-19T10:06:36;26.00;72.40
44607;DHT22;30315;46.072;14.474;2022-08-19T10:09:13;26.00;72.20
44607;DHT22;30315;46.072;14.474;2022-08-19T10:11:42;26.00;72.20
44607;DHT22;30315;46.072;14.474;2022-08-19T10:14:20;26.10;72.20
44607;DHT22;30315;46.072;14.474;2022-08-19T10:16:50;26.20;72.30
44607;DHT22;30315;46.072;14.474;2022-08-19T10:19:19;25.80;71.00
44607;DHT22;30315;46.072;14.474;2022-08-19T10:21:53;26.20;70.70
44607;DHT22;30315;46.072;14.474;2022-08-19T10:24:26;26.30;70.50
44607;DHT22;30315;46.072;14.474;2022-08-19T10:26:55;26.30;70.60
44607;DHT22;30315;46.072;14.474;2022-08-19T10:29:26;26.40;70.90
44607;DHT22;30315;46.072;14.474;2022-08-19T10:32:04;26.50;70.80
44607;DHT22;30315;46.072;14.474;2022-08-19T10:34:39;26.70;71.80
44607;DHT22;30315;46.072;14.474;2022-08-19T10:37:16;26.70;71.10
44607;DHT22;30315;46.072;14.474;2022-08-19T10:39:55;26.80;70.00
44607;DHT22;30315;46.072;14.474;2022-08-19T10:42:22;27.00;69.20
44607;DHT22;30315;46.072;14.474;2022-08-19T10:44:49;27.00;68.70
44607;DHT22;30315;46.072;14.474;2022-08-19T10:47:18;27.10;68.90
44607;DHT22;30315;46.072;14.474;2022-08-19T10:49:53;27.10;68.80
44607;DHT22;30315;46.072;14.474;2022-08-19T10:52:49;27.20;68.60
44607;DHT22;30315;46.072;14.474;2022-08-19T10:55:19;27.20;67.30
44607;DHT22;30315;46.072;14.474;2022-08-19T10:58:13;27.30;67.20
44607;DHT22;30315;46.072;14.474;2022-08-19T11:00:41;27.30;67.50
44607;DHT22;30315;46.072;14.474;2022-08-19T11:03:10;27.40;67.00
44607;DHT22;30315;46.072;14.474;2022-08-19T11:05:37;27.40;65.40
44607;DHT22;30315;46.072;14.474;2022-08-19T11:08:08;27.40;65.40
44607;DHT22;30315;46.072;14.474;2022-08-19T11:10:54;27.40;64.90
44607;DHT22;30315;46.072;14.474;2022-08-19T11:13:24;27.40;64.60
44607;DHT22;30315;46.072;14.474;2022-08-19T11:16:00;27.40;64.40
44607;DHT22;30315;46.072;14.474;2022-08-19T11:18:38;27.40;64.20
44607;DHT22;30315;46.072;14.474;2022-08-19T11:21:14;27.40;64.00
44607;DHT22;30315;46.072;14.474;2022-08-19T11:23:44;27.40;64.20
44607;DHT22;30315;46.072;14.474;2022-08-19T11:26:12;27.40;63.90
44607;DHT22;30315;46.072;14.474;2022-08-19T11:28:39;27.40;63.60
44607;DHT22;30315;46.072;14.474;2022-08-19T11:31:19;27.40;63.80
44607;DHT22;30315;46.072;14.474;2022-08-19T11:33:46;27.40;64.40
44607;DHT22;30315;46.072;14.474;2022-08-19T11:36:14;27.40;64.50
44607;DHT22;30315;46.072;14.474;2022-08-19T11:38:42;27.30;64.20
44607;DHT22;30315;46.072;14.474;2022-08-19T11:41:09;27.50;64.20
44607;DHT22;30315;46.072;14.474;2022-08-19T11:43:36;27.60;65.10
44607;DHT22;30315;46.072;14.474;2022-08-19T11:46:06;27.70;65.20
44607;DHT22;30315;46.072;14.474;2022-08-19T11:48:34;27.90;63.70
44607;DHT22;30315;46.072;14.474;2022-08-19T11:51:11;28.00;63.20
44607;DHT22;30315;46.072;14.474;2022-08-19T11:54:03;28.20;63.60
44607;DHT22;30315;46.072;14.474;2022-08-19T11:56:31;28.50;63.00
44607;DHT22;30315;46.072;14.474;2022-08-19T11:58:58;28.70;62.70
44607;DHT22;30315;46.072;14.474;2022-08-19T12:01:27;28.90;61.60
44607;DHT22;30315;46.072;14.474;2022-08-19T12:03:55;29.00;60.50
44607;DHT22;30315;46.072;14.474;2022-08-19T12:06:30;29.00;60.40
44607;DHT22;30315;46.072;14.474;2022-08-19T12:09:01;28.90;60.00
44607;DHT22;30315;46.072;14.474;2022-08-19T12:11:28;28.80;60.10
44607;DHT22;30315;46.072;14.474;2022-08-19T12:14:00;28.80;59.50
44607;DHT22;30315;46.072;14.474;2022-08-19T12:16:29;28.70;58.60
44607;DHT22;30315;46.072;14.474;2022-08-19T12:18:59;28.60;58.00
44607;DHT22;30315;46.072;14.474;2022-08-19T12:21:31;28.50;58.40
44607;DHT22;30315;46.072;14.474;2022-08-19T12:24:00;28.40;58.50
44607;DHT22;30315;46.072;14.474;2022-08-19T12:26:29;28.30;58.50
44607;DHT22;30315;46.072;14.474;2022-08-19T12:28:59;28.20;58.60
44607;DHT22;30315;46.072;14.474;2022-08-19T12:31:27;28.20;58.20
44607;DHT22;30315;46.072;14.474;2022-08-19T12:33:55;28.10;58.30
44607;DHT22;30315;46.072;14.474;2022-08-19T12:36:23;28.00;58.70
44607;DHT22;30315;46.072;14.474;2022-08-19T12:38:50;28.00;59.10
44607;DHT22;30315;46.072;14.474;2022-08-19T12:41:18;27.90;59.40
44607;DHT22;30315;46.072;14.474;2022-08-19T12:43:48;27.70;62.10
44607;DHT22;30315;46.072;14.474;2022-08-19T12:46:17;27.40;64.70
44607;DHT22;30315;46.072;14.474;2022-08-19T12:48:45;27.10;66.50
44607;DHT22;30315;46.072;14.474;2022-08-19T12:51:15;26.70;67.80
44607;DHT22;30315;46.072;14.474;2022-08-19T12:53:48;26.30;66.80
44607;DHT22;30315;46.072;14.474;2022-08-19T12:56:18;25.80;67.90
44607;DHT22;30315;46.072;14.474;2022-08-19T12:58:49;25.60;71.40
44607;DHT22;30315;46.072;14.474;2022-08-19T13:01:19;25.40;71.70
44607;DHT22;30315;46.072;14.474;2022-08-19T13:03:49;25.20;72.10
44607;DHT22;30315;46.072;14.474;2022-08-19T13:06:16;25.10;76.20
44607;DHT22;30315;46.072;14.474;2022-08-19T13:08:46;25.00;78.30
44607;DHT22;30315;46.072;14.474;2022-08-19T13:11:15;25.00;81.90
44607;DHT22;30315;46.072;14.474;2022-08-19T13:13:50;24.80;84.70
44607;DHT22;30315;46.072;14.474;2022-08-19T13:16:21;25.30;87.60
44607;DHT22;30315;46.072;14.474;2022-08-19T13:19:03;25.50;88.70
44607;DHT22;30315;46.072;14.474;2022-08-19T13:21:32;25.70;87.90
44607;DHT22;30315;46.072;14.474;2022-08-19T13:23:59;25.70;86.20
44607;DHT22;30315;46.072;14.474;2022-08-19T13:26:26;25.60;82.70
44607;DHT22;30315;46.072;14.474;2022-08-19T13:28:54;25.60;84.80
44607;DHT22;30315;46.072;14.474;2022-08-19T13:31:42;25.50;85.80
44607;DHT22;30315;46.072;14.474;2022-08-19T13:34:34;25.50;84.30
44607;DHT22;30315;46.072;14.474;2022-08-19T13:37:03;25.40;85.50
44607;DHT22;30315;46.072;14.474;2022-08-19T13:39:32;25.30;86.20
44607;DHT22;30315;46.072;14.474;2022-08-19T13:42:00;25.30;86.20
44607;DHT22;30315;46.072;14.474;2022-08-19T13:44:28;25.30;86.40
44607;DHT22;30315;46.072;14.474;2022-08-19T13:47:03;25.20;86.70
44607;DHT22;30315;46.072;14.474;2022-08-19T13:49:35;25.20;86.10
44607;DHT22;30315;46.072;14.474;2022-08-19T13:52:04;25.10;85.60
44607;DHT22;30315;46.072;14.474;2022-08-19T13:54:32;25.10;85.90
44607;DHT22;30315;46.072;14.474;2022-08-19T13:56:59;25.20;86.70
44607;DHT22;30315;46.072;14.474;2022-08-19T13:59:26;25.30;87.80
44607;DHT22;30315;46.072;14.474;2022-08-19T14:01:58;25.60;89.00
44607;DHT22;30315;46.072;14.474;2022-08-19T14:04:25;25.90;89.60
44607;DHT22;30315;46.072;14.474;2022-08-19T14:06:52;26.20;87.30
44607;DHT22;30315;46.072;14.474;2022-08-19T14:09:19;26.40;84.00
44607;DHT22;30315;46.072;14.474;2022-08-19T14:11:45;26.60;82.40
44607;DHT22;30315;46.072;14.474;2022-08-19T14:14:13;26.80;81.90
44607;DHT22;30315;46.072;14.474;2022-08-19T14:16:42;27.00;81.50
44607;DHT22;30315;46.072;14.474;2022-08-19T14:19:09;27.20;80.80
44607;DHT22;30315;46.072;14.474;2022-08-19T14:21:36;27.40;80.80
44607;DHT22;30315;46.072;14.474;2022-08-19T14:24:07;27.80;80.50
44607;DHT22;30315;46.072;14.474;2022-08-19T14:26:35;28.10;79.70
44607;DHT22;30315;46.072;14.474;2022-08-19T14:29:02;28.30;77.10
44607;DHT22;30315;46.072;14.474;2022-08-19T14:31:29;28.30;72.10
44607;DHT22;30315;46.072;14.474;2022-08-19T14:33:56;28.40;73.20
44607;DHT22;30315;46.072;14.474;2022-08-19T14:36:23;28.60;74.10
44607;DHT22;30315;46.072;14.474;2022-08-19T14:38:50;28.80;72.80
44607;DHT22;30315;46.072;14.474;2022-08-19T14:41:20;29.00;72.50
44607;DHT22;30315;46.072;14.474;2022-08-19T14:43:50;29.10;71.80
44607;DHT22;30315;46.072;14.474;2022-08-19T14:46:20;29.30;71.60
44607;DHT22;30315;46.072;14.474;2022-08-19T14:48:48;29.30;69.10
44607;DHT22;30315;46.072;14.474;2022-08-19T14:51:19;29.40;67.90
44607;DHT22;30315;46.072;14.474;2022-08-19T14:53:47;29.50;69.00
44607;DHT22;30315;46.072;14.474;2022-08-19T14:56:22;29.60;68.30
44607;DHT22;30315;46.072;14.474;2022-08-19T14:58:49;29.80;69.30
44607;DHT22;30315;46.072;14.474;2022-08-19T15:01:19;30.00;68.90
44607;DHT22;30315;46.072;14.474;2022-08-19T15:03:48;30.20;68.50
44607;DHT22;30315;46.072;14.474;2022-08-19T15:06:15;30.30;67.20
44607;DHT22;30315;46.072;14.474;2022-08-19T15:08:42;30.50;66.30
44607;DHT22;30315;46.072;14.474;2022-08-19T15:11:14;30.70;66.40
44607;DHT22;30315;46.072;14.474;2022-08-19T15:13:43;30.80;65.60
44607;DHT22;30315;46.072;14.474;2022-08-19T15:16:11;30.90;63.40
44607;DHT22;30315;46.072;14.474;2022-08-19T15:18:45;30.90;64.10
44607;DHT22;30315;46.072;14.474;2022-08-19T15:21:13;31.00;63.60
44607;DHT22;30315;46.072;14.474;2022-08-19T15:23:54;31.00;63.90
44607;DHT22;30315;46.072;14.474;2022-08-19T15:26:21;31.20;63.80
44607;DHT22;30315;46.072;14.474;2022-08-19T15:28:48;31.40;62.90
44607;DHT22;30315;46.072;14.474;2022-08-19T15:31:18;31.50;62.10
44607;DHT22;30315;46.072;14.474;2022-08-19T15:33:55;31.70;60.70
44607;DHT22;30315;46.072;14.474;2022-08-19T15:36:24;31.70;58.70
44607;DHT22;30315;46.072;14.474;2022-08-19T15:38:51;31.80;58.60
44607;DHT22;30315;46.072;14.474;2022-08-19T15:41:21;31.80;59.20
44607;DHT22;30315;46.072;14.474;2022-08-19T15:44:00;31.70;57.60
44607;DHT22;30315;46.072;14.474;2022-08-19T15:46:32;31.60;57.20
44607;DHT22;30315;46.072;14.474;2022-08-19T15:49:00;31.60;57.10